Time;durP1;ratioP1;P1;durP2;ratioP2;P2;SDS_P1;SDS_P2;PMS_P1;PMS_P2;Temp;Humidity;BMP_temperature;BMP_pressure;BME280_temperature;BME280_humidity;BME280_pressure;Samples;Min_cycle;Max_cycle;Signal;HPM_P1;HPM_P2
2022/09/21 00:01:05;;;;;;;0.00;0.00;;;16.30;70.10;;;;;;5027953;28;20429;-77
2022/09/21 00:03:32;;;;;;;2.55;0.25;;;16.30;70.10;;;;;;5009922;28;20033;-77
2022/09/21 00:06:05;;;;;;;0.00;0.00;;;16.30;70.00;;;;;;5027627;28;20111;-77
2022/09/21 00:08:31;;;;;;;0.00;0.00;;;16.30;70.10;;;;;;5026345;28;20038;-77
2022/09/21 00:10:58;;;;;;;;;;;16.30;70.00;;;;;;5028015;28;20071;-77
2022/09/21 00:13:25;;;;;;;0.00;0.00;;;16.30;70.10;;;;;;5027617;28;20398;-77
2022/09/21 00:15:51;;;;;;;0.00;0.00;;;16.30;70.00;;;;;;5027649;28;20500;-77
2022/09/21 00:18:17;;;;;;;0.00;0.00;;;16.30;70.00;;;;;;5026558;28;20025;-77
2022/09/21 00:20:43;;;;;;;0.00;0.00;;;16.30;70.10;;;;;;5027656;28;20109;-77
2022/09/21 00:23:09;;;;;;;0.00;0.00;;;16.30;70.10;;;;;;5009803;28;20033;-77
2022/09/21 00:25:35;;;;;;;0.00;0.00;;;16.30;70.10;;;;;;5027656;28;20179;-77
2022/09/21 00:28:01;;;;;;;0.00;0.00;;;16.30;70.10;;;;;;5026084;28;20026;-77
2022/09/21 00:30:27;;;;;;;0.00;0.00;;;16.30;70.10;;;;;;5026213;28;20045;-77
2022/09/21 00:32:53;;;;;;;0.00;0.00;;;16.40;70.10;;;;;;5027396;28;20032;-77
2022/09/21 00:35:19;;;;;;;;;;;16.30;70.60;;;;;;5026615;28;20405;-77
2022/09/21 00:37:44;;;;;;;0.00;0.00;;;16.30;70.10;;;;;;5009708;28;20012;-77
2022/09/21 00:40:11;;;;;;;0.00;0.00;;;16.40;70.10;;;;;;5027421;28;20042;-76
2022/09/21 00:42:36;;;;;;;;;;;16.30;70.00;;;;;;5027746;28;20034;-76
2022/09/21 00:45:04;;;;;;;0.00;0.00;;;16.30;70.10;;;;;;5027173;28;20413;-76
2022/09/21 00:47:41;;;;;;;0.00;0.00;;;16.30;70.10;;;;;;5025947;28;20106;-77
2022/09/21 00:50:12;;;;;;;0.00;0.00;;;16.30;70.10;;;;;;5027334;28;20056;-77
2022/09/21 00:52:42;;;;;;;0.00;0.00;;;16.40;70.20;;;;;;5027176;28;20033;-76
2022/09/21 00:55:13;;;;;;;0.00;0.00;;;16.40;70.20;;;;;;5027696;28;20022;-77
2022/09/21 00:57:40;;;;;;;0.00;0.00;;;16.40;70.20;;;;;;5027519;28;20025;-76
2022/09/21 01:00:08;;;;;;;0.00;0.00;;;16.40;70.20;;;;;;5027461;28;20021;-77
2022/09/21 01:02:36;;;;;;;0.00;0.00;;;16.40;70.20;;;;;;5027148;28;20466;-77
2022/09/21 01:05:07;;;;;;;0.00;0.00;;;16.40;70.20;;;;;;5027195;28;20040;-76
2022/09/21 01:07:36;;;;;;;0.00;0.00;;;16.50;70.20;;;;;;5027271;28;20521;-77
2022/09/21 01:10:13;;;;;;;0.00;0.00;;;16.50;70.20;;;;;;5030091;28;20386;-76
2022/09/21 01:12:48;;;;;;;;;;;16.50;70.30;;;;;;5031103;28;20026;-77
2022/09/21 01:15:32;;;;;;;0.00;0.00;;;16.60;70.30;;;;;;5029243;28;20288;-77
2022/09/21 01:18:27;;;;;;;0.00;0.00;;;16.60;70.20;;;;;;5030683;28;20022;-76
2022/09/21 01:21:12;;;;;;;0.00;0.00;;;16.60;70.20;;;;;;5029222;28;20067;-76
2022/09/21 01:23:52;;;;;;;0.00;0.00;;;16.60;70.20;;;;;;5030476;28;20021;-77
2022/09/21 01:26:33;;;;;;;0.00;0.00;;;16.60;70.20;;;;;;5030604;28;20374;-77
2022/09/21 01:29:17;;;;;;;0.00;0.00;;;16.60;70.20;;;;;;5029119;28;20026;-77
2022/09/21 01:32:07;;;;;;;0.00;0.00;;;16.60;70.20;;;;;;5030412;28;20052;-77
2022/09/21 01:34:48;;;;;;;0.00;0.00;;;16.50;70.20;;;;;;5030208;28;20065;-76
2022/09/21 01:37:19;;;;;;;0.00;0.00;;;16.50;70.20;;;;;;5028902;28;20029;-77
2022/09/21 01:39:51;;;;;;;0.00;0.00;;;16.50;70.20;;;;;;5029069;28;20313;-77
2022/09/21 01:42:20;;;;;;;0.00;0.00;;;16.40;70.20;;;;;;5030223;28;20032;-77
2022/09/21 01:44:47;;;;;;;0.00;0.00;;;16.40;70.30;;;;;;5028676;28;20036;-76
2022/09/21 01:47:15;;;;;;;0.00;0.00;;;16.50;70.30;;;;;;5030117;28;20432;-77
2022/09/21 01:49:46;;;;;;;0.00;0.00;;;16.40;70.30;;;;;;5030020;28;20398;-76
2022/09/21 01:52:24;;;;;;;0.00;0.00;;;16.40;70.30;;;;;;5028967;28;20030;-76
2022/09/21 01:55:08;;;;;;;0.00;0.00;;;16.40;70.30;;;;;;5030086;28;20032;-76
2022/09/21 01:57:51;;;;;;;0.00;0.00;;;16.40;70.30;;;;;;5029913;28;20021;-76
2022/09/21 02:00:17;;;;;;;0.00;0.00;;;16.40;70.40;;;;;;5029826;28;20323;-76
2022/09/21 02:03:00;;;;;;;0.00;0.00;;;16.40;70.30;;;;;;5030003;28;20025;-76
2022/09/21 02:05:29;;;;;;;0.00;0.00;;;16.40;70.30;;;;;;5029796;28;20075;-76
2022/09/21 02:07:56;;;;;;;4.38;0.38;;;16.40;70.30;;;;;;5028411;28;20405;-76
2022/09/21 02:10:33;;;;;;;0.00;0.00;;;16.40;70.40;;;;;;5029800;28;20041;-76
2022/09/21 02:13:04;;;;;;;0.00;0.00;;;16.40;70.40;;;;;;5028221;28;20029;-76
2022/09/21 02:15:48;;;;;;;0.00;0.00;;;16.40;70.30;;;;;;5029555;28;20053;-76
2022/09/21 02:18:32;;;;;;;0.00;0.00;;;16.50;70.40;;;;;;5029522;28;20013;-76
2022/09/21 02:21:00;;;;;;;0.00;0.00;;;16.40;70.30;;;;;;5027817;28;20033;-76
2022/09/21 02:23:31;;;;;;;0.00;0.00;;;16.40;70.20;;;;;;5027990;28;20040;-76
2022/09/21 02:26:16;;;;;;;0.00;0.00;;;16.40;70.30;;;;;;5029272;28;20021;-76
2022/09/21 02:29:06;;;;;;;0.00;0.00;;;16.30;70.30;;;;;;5027924;28;20037;-76
2022/09/21 02:31:49;;;;;;;0.00;0.00;;;16.40;70.40;;;;;;5029141;28;20029;-76
2022/09/21 02:34:27;;;;;;;0.00;0.00;;;16.30;70.30;;;;;;5027930;28;20028;-76
2022/09/21 02:37:01;;;;;;;0.00;0.00;;;16.30;70.30;;;;;;5027809;28;20021;-76
2022/09/21 02:39:42;;;;;;;0.15;0.08;;;16.30;70.30;;;;;;5027796;28;20029;-76
2022/09/21 02:42:11;;;;;;;0.00;0.00;;;16.30;70.40;;;;;;5029181;28;20539;-76
2022/09/21 02:44:39;;;;;;;0.00;0.00;;;16.30;70.40;;;;;;5028945;28;20529;-76
2022/09/21 02:47:15;;;;;;;0.00;0.00;;;16.30;70.50;;;;;;5027727;28;20386;-76
2022/09/21 02:49:55;;;;;;;0.00;0.00;;;16.30;70.50;;;;;;5028822;28;20042;-75
2022/09/21 02:52:22;;;;;;;0.00;0.00;;;16.30;70.40;;;;;;5027513;28;20033;-76
2022/09/21 02:54:52;;;;;;;0.00;0.00;;;16.30;70.30;;;;;;5028825;28;20478;-76
2022/09/21 02:57:21;;;;;;;0.00;0.00;;;16.30;70.40;;;;;;5028806;28;20029;-76
2022/09/21 02:59:47;;;;;;;1.15;0.17;;;16.30;70.40;;;;;;5028791;28;20068;-76
2022/09/21 03:02:13;;;;;;;;;;;16.30;70.30;;;;;;5029010;28;20029;-76
2022/09/21 03:04:48;;;;;;;0.00;0.00;;;16.30;70.30;;;;;;5028549;28;20403;-76
2022/09/21 03:07:17;;;;;;;0.00;0.00;;;16.30;70.30;;;;;;5028576;28;20381;-76
2022/09/21 03:09:43;;;;;;;0.00;0.00;;;16.30;70.30;;;;;;5028748;28;20072;-76
2022/09/21 03:12:09;;;;;;;0.00;0.00;;;16.30;70.30;;;;;;5028407;28;20033;-76
2022/09/21 03:14:35;;;;;;;0.20;0.13;;;16.20;70.30;;;;;;5027118;28;20138;-76
2022/09/21 03:17:01;;;;;;;0.00;0.00;;;16.20;70.30;;;;;;5027118;28;20034;-76
2022/09/21 03:19:28;;;;;;;0.52;0.20;;;16.20;70.30;;;;;;5028265;28;20030;-76
2022/09/21 03:21:53;;;;;;;0.00;0.00;;;16.10;70.30;;;;;;5026890;28;20029;-76
2022/09/21 03:24:44;;;;;;;0.22;0.17;;;16.10;70.40;;;;;;5028133;28;20064;-76
2022/09/21 03:27:07;;;;;;;0.00;0.00;;;16.10;70.50;;;;;;5027994;28;20045;-76
2022/09/21 03:29:33;;;;;;;0.00;0.00;;;16.10;70.50;;;;;;5028146;28;20036;-76
2022/09/21 03:31:59;;;;;;;0.00;0.00;;;16.10;70.50;;;;;;5027345;28;20112;-76
2022/09/21 03:34:24;;;;;;;0.00;0.00;;;16.10;70.50;;;;;;5026744;28;20032;-76
2022/09/21 03:36:50;;;;;;;1.85;0.55;;;16.10;70.50;;;;;;5026752;28;20025;-76
2022/09/21 03:39:16;;;;;;;0.00;0.00;;;16.10;70.40;;;;;;5028134;28;20504;-76
2022/09/21 03:41:42;;;;;;;0.00;0.00;;;16.20;70.40;;;;;;5028034;28;20029;-76
2022/09/21 03:44:07;;;;;;;0.00;0.00;;;16.20;70.40;;;;;;5027993;28;20045;-76
2022/09/21 03:46:34;;;;;;;0.00;0.00;;;16.20;70.40;;;;;;5027838;28;20035;-76
2022/09/21 03:49:00;;;;;;;;;;;16.20;70.40;;;;;;5028015;28;20044;-76
2022/09/21 03:51:25;;;;;;;0.00;0.00;;;16.20;70.40;;;;;;5027624;28;20323;-76
2022/09/21 03:53:51;;;;;;;0.00;0.00;;;16.10;70.30;;;;;;5027826;28;20041;-76
2022/09/21 03:56:17;;;;;;;0.00;0.00;;;16.10;70.30;;;;;;5027743;28;20624;-76
2022/09/21 03:58:43;;;;;;;0.00;0.00;;;16.20;70.40;;;;;;5027781;28;20032;-76
2022/09/21 04:01:09;;;;;;;;;;;16.20;70.40;;;;;;5028064;28;20041;-76
2022/09/21 04:03:34;;;;;;;0.00;0.00;;;16.20;70.30;;;;;;5026430;28;19909;-76
2022/09/21 04:06:07;;;;;;;0.00;0.00;;;16.20;70.30;;;;;;5009796;28;20039;-76
2022/09/21 04:08:32;;;;;;;0.00;0.00;;;16.10;70.30;;;;;;5026367;28;20499;-77
2022/09/21 04:10:58;;;;;;;2.72;0.73;;;16.10;70.30;;;;;;5027680;28;20108;-76
2022/09/21 04:13:24;;;;;;;0.00;0.00;;;16.10;70.30;;;;;;5010138;28;20632;-77
2022/09/21 04:15:50;;;;;;;0.00;0.00;;;16.10;70.30;;;;;;5027563;28;20068;-77
2022/09/21 04:18:15;;;;;;;0.00;0.00;;;16.10;70.30;;;;;;5026344;28;20125;-76
2022/09/21 04:20:41;;;;;;;0.00;0.00;;;16.10;70.30;;;;;;5027421;28;20561;-76
2022/09/21 04:23:08;;;;;;;0.03;0.00;;;16.10;70.30;;;;;;5026524;28;20128;-76
2022/09/21 04:25:34;;;;;;;0.00;0.00;;;16.10;70.40;;;;;;5027485;28;20041;-76
2022/09/21 04:28:00;;;;;;;;;;;16.10;70.30;;;;;;5027966;28;20028;-76
2022/09/21 04:30:26;;;;;;;0.00;0.00;;;16.10;70.40;;;;;;5027383;28;19909;-76
2022/09/21 04:32:52;;;;;;;0.00;0.00;;;16.10;70.30;;;;;;5026281;28;20068;-76
2022/09/21 04:35:17;;;;;;;0.00;0.00;;;16.10;70.40;;;;;;5026184;28;20061;-77
2022/09/21 04:37:43;;;;;;;0.00;0.00;;;16.10;70.40;;;;;;5027474;28;20034;-76
2022/09/21 04:40:09;;;;;;;0.00;0.00;;;16.10;70.40;;;;;;5026081;28;20128;-76
2022/09/21 04:42:35;;;;;;;0.00;0.00;;;16.10;70.40;;;;;;5028214;28;20470;-76
2022/09/21 04:45:00;;;;;;;0.00;0.00;;;16.10;70.50;;;;;;5029851;28;20044;-76
2022/09/21 04:47:29;;;;;;;0.00;0.00;;;16.10;70.40;;;;;;5029949;28;20036;-76
2022/09/21 04:49:55;;;;;;;0.00;0.00;;;16.10;70.40;;;;;;5029488;28;20049;-76
2022/09/21 04:52:20;;;;;;;0.00;0.00;;;16.10;70.40;;;;;;5030980;28;20034;-76
2022/09/21 04:54:46;;;;;;;0.10;0.10;;;16.10;70.40;;;;;;5029713;28;20083;-76
2022/09/21 04:57:13;;;;;;;0.00;0.00;;;16.10;70.40;;;;;;5029623;28;20509;-76
2022/09/21 04:59:39;;;;;;;0.00;0.00;;;16.10;70.40;;;;;;5029287;28;20037;-76
2022/09/21 05:02:05;;;;;;;0.00;0.00;;;16.10;70.40;;;;;;5031038;28;20029;-76
2022/09/21 05:04:30;;;;;;;0.00;0.00;;;16.10;70.50;;;;;;5030921;28;20057;-77
2022/09/21 05:06:58;;;;;;;0.00;0.00;;;16.10;70.50;;;;;;5029671;28;20041;-76
2022/09/21 05:12:08;;;;;;;0.10;0.05;;;16.10;70.40;;;;;;5030764;28;20053;-76
2022/09/21 05:14:35;;;;;;;4.00;0.15;;;16.10;71.00;;;;;;5029244;28;20433;-76
2022/09/21 05:17:01;;;;;;;0.00;0.00;;;16.10;70.50;;;;;;5030816;28;20025;-76
2022/09/21 05:19:26;;;;;;;0.00;0.00;;;16.10;70.50;;;;;;5012901;28;20382;-76
2022/09/21 05:21:52;;;;;;;0.00;0.00;;;16.10;70.40;;;;;;5029336;28;20053;-76
2022/09/21 05:24:17;;;;;;;0.00;0.00;;;16.10;70.50;;;;;;5029081;28;20473;-76
2022/09/21 05:26:43;;;;;;;0.00;0.00;;;16.10;70.40;;;;;;5029260;28;20061;-75
2022/09/21 05:29:09;;;;;;;0.00;0.00;;;16.10;70.40;;;;;;5029199;28;20040;-76
2022/09/21 05:31:57;;;;;;;0.20;0.08;;;16.00;70.40;;;;;;5030264;28;20147;-76
2022/09/21 05:34:37;;;;;;;0.00;0.00;;;16.00;70.40;;;;;;5030204;28;20021;-74
2022/09/21 05:37:25;;;;;;;0.00;0.00;;;16.00;70.40;;;;;;5030340;28;20082;-76
2022/09/21 05:39:51;;;;;;;0.00;0.00;;;16.00;70.40;;;;;;5030246;28;20033;-76
2022/09/21 05:42:17;;;;;;;0.00;0.00;;;16.00;70.40;;;;;;5030065;28;20026;-76
2022/09/21 05:44:43;;;;;;;0.00;0.00;;;15.90;70.40;;;;;;5030096;28;20077;-75
2022/09/21 05:47:29;;;;;;;0.00;0.00;;;15.90;70.40;;;;;;5028667;28;20397;-75
2022/09/21 05:50:04;;;;;;;0.00;0.00;;;15.90;70.40;;;;;;5028625;28;20103;-76
2022/09/21 05:52:39;;;;;;;0.00;0.00;;;16.00;70.50;;;;;;5029918;28;20082;-75
2022/09/21 05:55:30;;;;;;;0.00;0.00;;;16.00;70.40;;;;;;5027512;28;20075;-76
2022/09/21 05:58:14;;;;;;;0.88;0.43;;;16.00;70.40;;;;;;5029645;28;20441;-76
2022/09/21 06:00:48;;;;;;;0.10;0.00;;;15.90;70.40;;;;;;5029173;28;20022;-75
2022/09/21 06:03:28;;;;;;;0.00;0.00;;;15.90;70.40;;;;;;5029927;28;20033;-76
2022/09/21 06:05:54;;;;;;;0.00;0.00;;;15.90;70.40;;;;;;5030537;28;20026;-76
2022/09/21 06:08:20;;;;;;;;;;;15.90;70.40;;;;;;5029839;28;20147;-76
2022/09/21 06:10:46;;;;;;;0.65;0.30;;;15.90;70.40;;;;;;5029341;28;19971;-76
2022/09/21 06:13:12;;;;;;;0.00;0.00;;;15.90;70.40;;;;;;5011612;28;20061;-76
2022/09/21 06:15:38;;;;;;;0.00;0.00;;;15.90;70.40;;;;;;5029094;28;20025;-74
2022/09/21 06:18:07;;;;;;;0.00;0.00;;;15.90;70.50;;;;;;5027909;28;20037;-76
2022/09/21 06:20:34;;;;;;;0.00;0.00;;;15.90;70.50;;;;;;5028167;28;20441;-76
2022/09/21 06:23:01;;;;;;;0.00;0.00;;;15.90;70.50;;;;;;5029332;28;20065;-76
2022/09/21 06:25:27;;;;;;;0.00;0.00;;;15.90;70.50;;;;;;5011376;28;20041;-76
2022/09/21 06:27:53;;;;;;;0.00;0.00;;;15.90;70.50;;;;;;5028048;28;20029;-76
2022/09/21 06:30:18;;;;;;;0.00;0.00;;;15.90;70.50;;;;;;5027892;28;20141;-76
2022/09/21 06:32:44;;;;;;;0.00;0.00;;;15.90;70.50;;;;;;5028882;28;20043;-76
2022/09/21 06:35:10;;;;;;;0.00;0.00;;;15.90;70.50;;;;;;5011343;28;20055;-76
2022/09/21 06:37:38;;;;;;;0.90;0.28;;;15.90;70.50;;;;;;5027677;28;20059;-76
2022/09/21 06:40:05;;;;;;;0.00;0.00;;;16.00;70.60;;;;;;5028641;28;20029;-76
2022/09/21 06:42:31;;;;;;;0.00;0.00;;;16.00;70.60;;;;;;5029214;28;20388;-76
2022/09/21 06:44:56;;;;;;;0.05;0.00;;;16.00;70.60;;;;;;5028611;28;20033;-76
2022/09/21 06:47:22;;;;;;;0.00;0.00;;;16.00;70.60;;;;;;5027180;28;20040;-76
2022/09/21 06:49:48;;;;;;;0.20;0.10;;;16.10;70.60;;;;;;5028527;28;20109;-76
2022/09/21 06:52:13;;;;;;;0.00;0.00;;;16.10;70.50;;;;;;5028751;28;20115;-75
2022/09/21 06:54:41;;;;;;;0.00;0.00;;;16.10;70.60;;;;;;5026976;28;20025;-76
2022/09/21 06:57:06;;;;;;;0.17;0.10;;;16.20;70.80;;;;;;5010821;28;20541;-76
2022/09/21 06:59:32;;;;;;;0.00;0.00;;;16.20;70.80;;;;;;5010262;28;20132;-76
2022/09/21 07:01:58;;;;;;;0.00;0.00;;;16.30;70.80;;;;;;5027921;28;20041;-76
2022/09/21 07:04:24;;;;;;;0.00;0.00;;;16.40;70.80;;;;;;5026659;28;20091;-75
2022/09/21 07:06:50;;;;;;;0.00;0.00;;;16.40;70.80;;;;;;5028135;28;20126;-75
2022/09/21 07:09:15;;;;;;;0.00;0.00;;;16.50;70.90;;;;;;5027001;28;20033;-76
2022/09/21 07:11:41;;;;;;;0.00;0.00;;;16.50;70.90;;;;;;5026801;28;20133;-76
2022/09/21 07:14:07;;;;;;;0.00;0.00;;;16.60;71.00;;;;;;5027114;28;20030;-75
2022/09/21 07:16:33;;;;;;;0.00;0.00;;;16.70;70.90;;;;;;5026646;28;20033;-76
2022/09/21 07:18:59;;;;;;;;;;;16.80;70.90;;;;;;5027214;28;20026;-76
2022/09/21 07:21:25;;;;;;;0.00;0.00;;;16.80;70.80;;;;;;5028331;28;20418;-76
2022/09/21 07:23:51;;;;;;;0.00;0.00;;;16.90;70.70;;;;;;5028077;28;20017;-76
2022/09/21 07:26:17;;;;;;;0.00;0.00;;;17.00;70.60;;;;;;5026716;28;20083;-76
2022/09/21 07:28:43;;;;;;;0.00;0.00;;;17.00;70.60;;;;;;5027131;28;20083;-75
2022/09/21 07:31:14;;;;;;;0.00;0.00;;;17.10;71.10;;;;;;5027710;28;20473;-76
2022/09/21 07:33:45;;;;;;;0.00;0.00;;;17.20;70.60;;;;;;5027845;28;20029;-76
2022/09/21 07:36:11;;;;;;;0.00;0.00;;;17.30;70.50;;;;;;5027700;28;20028;-75
2022/09/21 07:38:42;;;;;;;0.00;0.00;;;17.30;70.50;;;;;;4993444;28;20029;-75
2022/09/21 07:41:10;;;;;;;0.00;0.00;;;17.40;70.50;;;;;;5025802;28;20041;-76
2022/09/21 07:43:39;;;;;;;0.00;0.00;;;17.50;70.50;;;;;;5027478;28;20022;-76
2022/09/21 07:46:10;;;;;;;0.00;0.00;;;17.50;70.40;;;;;;5019602;28;20033;-76
2022/09/21 07:48:36;;;;;;;0.00;0.00;;;17.50;70.40;;;;;;4996514;28;20034;-76
2022/09/21 07:51:10;;;;;;;0.00;0.00;;;17.60;70.50;;;;;;5004580;28;20554;-76
2022/09/21 07:53:38;;;;;;;0.00;0.00;;;17.60;70.50;;;;;;5005291;28;20450;-76
2022/09/21 07:56:13;;;;;;;0.00;0.00;;;17.60;70.40;;;;;;5006134;28;20037;-76
2022/09/21 08:01:24;;;;;;;0.10;0.08;;;17.70;70.50;;;;;;5007770;28;20427;-76
2022/09/21 08:03:51;;;;;;;0.00;0.00;;;17.70;70.40;;;;;;5006389;28;20487;-76
2022/09/21 08:06:18;;;;;;;0.00;0.00;;;17.70;70.50;;;;;;5004871;28;20053;-77
2022/09/21 08:08:46;;;;;;;0.00;0.00;;;17.80;70.70;;;;;;5004997;28;20025;-76
2022/09/21 08:11:14;;;;;;;0.00;0.00;;;18.00;70.80;;;;;;5004952;28;20034;-76
2022/09/21 08:13:40;;;;;;;0.00;0.00;;;18.20;70.80;;;;;;5007214;28;20482;-76
2022/09/21 08:16:06;;;;;;;0.00;0.00;;;18.40;70.70;;;;;;5007102;28;20018;-77
2022/09/21 08:18:36;;;;;;;0.00;0.00;;;18.60;70.60;;;;;;5011847;28;20113;-78
2022/09/21 08:21:02;;;;;;;0.00;0.00;;;19.50;71.90;;;;;;5015529;28;20138;-78
2022/09/21 08:23:28;;;;;;;;;;;20.50;71.80;;;;;;5026933;28;20115;-77
2022/09/21 08:26:02;;;;;;;0.00;0.00;;;21.50;71.90;;;;;;5020810;28;20353;-78
2022/09/21 08:28:32;;;;;;;0.00;0.00;;;22.40;70.90;;;;;;5032070;28;20045;-78
2022/09/21 08:31:15;;;;;;;0.00;0.00;;;23.20;70.40;;;;;;5033762;28;20025;-73
2022/09/21 08:33:42;;;;;;;0.00;0.00;;;23.80;70.10;;;;;;5029796;28;20017;-72
2022/09/21 08:36:08;;;;;;;0.00;0.00;;;24.40;70.10;;;;;;5030567;28;20033;-77
2022/09/21 08:38:36;;;;;;;0.00;0.00;;;25.00;70.00;;;;;;5031762;28;20084;-76
2022/09/21 08:41:13;;;;;;;0.00;0.00;;;25.60;70.00;;;;;;5032177;28;20425;-77
2022/09/21 08:43:42;;;;;;;0.00;0.00;;;26.20;69.90;;;;;;5015862;28;20079;-77
2022/09/21 08:46:24;;;;;;;0.00;0.00;;;26.30;69.00;;;;;;5028884;28;20022;-77
2022/09/21 08:49:22;;;;;;;0.00;0.00;;;25.70;68.40;;;;;;5032114;28;20025;-77
2022/09/21 08:51:59;;;;;;;0.00;0.00;;;25.10;69.00;;;;;;5025424;28;20128;-77
2022/09/21 08:54:46;;;;;;;0.00;0.00;;;25.00;70.00;;;;;;5030866;28;20049;-76
2022/09/21 08:57:13;;;;;;;0.00;0.00;;;25.30;70.50;;;;;;5030707;28;20426;-75
2022/09/21 08:59:45;;;;;;;0.00;0.00;;;25.90;70.70;;;;;;5015950;28;20116;-76
2022/09/21 09:02:41;;;;;;;0.00;0.00;;;26.50;70.80;;;;;;5031871;28;20025;-76
2022/09/21 09:05:22;;;;;;;0.00;0.00;;;27.20;70.70;;;;;;5031127;28;20335;-77
2022/09/21 09:08:18;;;;;;;0.00;0.00;;;27.70;70.30;;;;;;5029820;28;20272;-77
2022/09/21 09:10:45;;;;;;;;;;;27.70;69.80;;;;;;5027525;28;20045;-76
2022/09/21 09:13:44;;;;;;;0.00;0.00;;;27.50;69.40;;;;;;5031317;28;19931;-77
2022/09/21 09:16:25;;;;;;;0.30;0.08;;;26.80;69.10;;;;;;5030102;28;20041;-77
2022/09/21 09:19:17;;;;;;;0.00;0.00;;;25.90;69.20;;;;;;5029931;28;20079;-76
2022/09/21 09:21:43;;;;;;;0.00;0.00;;;25.80;70.60;;;;;;5031132;28;20021;-76
2022/09/21 09:24:35;;;;;;;0.00;0.00;;;25.90;70.30;;;;;;5032927;28;20112;-77
2022/09/21 09:27:16;;;;;;;0.00;0.00;;;25.50;69.30;;;;;;5025652;28;20101;-76
2022/09/21 09:29:51;;;;;;;0.00;0.00;;;24.80;69.30;;;;;;5030481;28;20386;-75
2022/09/21 09:32:18;;;;;;;0.00;0.00;;;24.30;69.70;;;;;;5030133;28;20162;-74
2022/09/21 09:35:18;;;;;;;0.00;0.00;;;23.90;70.00;;;;;;5028870;28;20079;-75
2022/09/21 09:37:46;;;;;;;0.00;0.00;;;23.70;70.20;;;;;;5024515;28;20136;-75
2022/09/21 09:40:13;;;;;;;0.00;0.00;;;23.40;70.10;;;;;;5023491;28;20076;-75
2022/09/21 09:42:57;;;;;;;0.00;0.00;;;23.30;70.10;;;;;;5018549;28;20061;-76
2022/09/21 09:45:41;;;;;;;0.00;0.00;;;23.10;70.10;;;;;;5022408;28;20084;-76
2022/09/21 09:48:20;;;;;;;0.00;0.00;;;22.90;70.10;;;;;;5017608;28;20017;-75
2022/09/21 09:50:46;;;;;;;0.00;0.00;;;22.80;70.20;;;;;;5025179;28;20056;-74
2022/09/21 09:53:15;;;;;;;;;;;22.80;70.20;;;;;;5031114;28;20533;-77
2022/09/21 09:55:45;;;;;;;0.00;0.00;;;22.70;70.10;;;;;;5028422;28;19905;-75
2022/09/21 09:58:40;;;;;;;0.00;0.00;;;22.70;70.20;;;;;;5029621;28;20035;-77
2022/09/21 10:01:07;;;;;;;0.00;0.00;;;22.90;70.40;;;;;;5029329;28;20089;-75
2022/09/21 10:03:33;;;;;;;0.00;0.00;;;23.00;70.30;;;;;;5030070;28;20028;-75
2022/09/21 10:05:58;;;;;;;0.00;0.00;;;22.90;69.90;;;;;;5028680;28;20030;-75
2022/09/21 10:08:38;;;;;;;;;;;23.10;70.80;;;;;;5030487;28;20545;-74
2022/09/21 10:11:04;;;;;;;0.00;0.00;;;23.30;70.70;;;;;;5030439;28;19944;-76
2022/09/21 10:13:42;;;;;;;0.00;0.00;;;23.60;70.40;;;;;;5028846;28;20470;-75
2022/09/21 10:16:12;;;;;;;0.00;0.00;;;23.80;70.80;;;;;;5029657;28;20414;-70
2022/09/21 10:18:38;;;;;;;0.00;0.00;;;23.90;70.00;;;;;;5029572;28;20041;-73
2022/09/21 10:21:33;;;;;;;0.20;0.10;;;23.90;70.10;;;;;;5030580;28;20406;-79
2022/09/21 10:24:15;;;;;;;0.00;0.00;;;24.10;70.20;;;;;;5031573;28;20119;-77
2022/09/21 10:26:45;;;;;;;0.00;0.00;;;24.20;70.10;;;;;;5032114;28;20021;-76
2022/09/21 10:29:24;;;;;;;0.00;0.00;;;24.10;69.70;;;;;;5029693;28;20068;-76
2022/09/21 10:32:12;;;;;;;0.00;0.00;;;24.20;70.50;;;;;;5029777;28;20051;-75
2022/09/21 10:34:40;;;;;;;0.00;0.00;;;24.80;70.60;;;;;;5030664;28;20477;-79
2022/09/21 10:37:28;;;;;;;0.00;0.00;;;25.10;70.10;;;;;;5028550;28;20102;-75
2022/09/21 10:39:54;;;;;;;0.00;0.00;;;25.10;70.00;;;;;;5029599;28;20106;-76
2022/09/21 10:42:20;;;;;;;0.00;0.00;;;25.30;70.30;;;;;;5029284;28;20060;-77
2022/09/21 10:45:16;;;;;;;0.03;0.03;;;25.20;69.90;;;;;;5029424;28;20021;-77
2022/09/21 10:47:47;;;;;;;0.00;0.00;;;24.90;69.80;;;;;;5029029;28;20021;-76
2022/09/21 10:50:30;;;;;;;0.00;0.00;;;24.70;69.80;;;;;;5029729;28;20639;-77
2022/09/21 10:53:19;;;;;;;0.00;0.00;;;24.50;70.00;;;;;;5028073;28;20033;-75
2022/09/21 10:55:50;;;;;;;0.00;0.00;;;24.50;70.20;;;;;;5025726;28;20080;-77
2022/09/21 10:58:16;;;;;;;0.00;0.00;;;25.10;71.50;;;;;;5027767;28;20033;-76
2022/09/21 11:00:43;;;;;;;0.00;0.00;;;26.00;71.50;;;;;;5029550;28;20025;-76
2022/09/21 11:03:33;;;;;;;0.00;0.00;;;26.70;71.10;;;;;;5024778;28;20038;-76
2022/09/21 11:06:08;;;;;;;0.00;0.00;;;26.90;70.20;;;;;;5018863;28;20025;-77
2022/09/21 11:08:44;;;;;;;0.00;0.00;;;27.10;70.70;;;;;;5020449;28;20383;-77
2022/09/21 11:11:42;;;;;;;0.00;0.00;;;27.60;70.80;;;;;;5013721;28;20037;-75
2022/09/21 11:14:19;;;;;;;0.00;0.00;;;28.00;70.70;;;;;;5020388;28;20060;-77
2022/09/21 11:17:14;;;;;;;0.00;0.00;;;27.90;70.10;;;;;;5019217;28;20104;-79
2022/09/21 11:19:51;;;;;;;0.00;0.00;;;28.10;70.80;;;;;;5023275;28;20037;-80
2022/09/21 11:22:41;;;;;;;0.00;0.00;;;28.70;71.30;;;;;;5029244;28;20270;-77
2022/09/21 11:25:08;;;;;;;0.00;0.00;;;29.20;71.30;;;;;;5015259;28;20196;-79
2022/09/21 11:27:38;;;;;;;0.00;0.00;;;29.70;71.20;;;;;;5028557;28;20027;-79
2022/09/21 11:30:13;;;;;;;0.00;0.00;;;29.90;70.90;;;;;;5029677;28;20123;-79
2022/09/21 11:33:14;;;;;;;0.00;0.00;;;29.50;70.50;;;;;;5028440;28;20100;-74
2022/09/21 11:35:46;;;;;;;0.00;0.00;;;28.80;70.00;;;;;;5021632;28;20029;-78
2022/09/21 11:38:30;;;;;;;0.00;0.00;;;28.10;70.50;;;;;;5028439;28;20087;-77
2022/09/21 11:41:02;;;;;;;0.00;0.00;;;27.60;70.10;;;;;;5023175;28;20041;-76
2022/09/21 11:43:51;;;;;;;0.00;0.00;;;27.20;70.40;;;;;;5027053;28;20021;-75
2022/09/21 11:46:37;;;;;;;0.00;0.00;;;26.80;70.30;;;;;;5024311;28;20078;-76
2022/09/21 11:49:05;;;;;;;0.00;0.00;;;26.60;70.40;;;;;;5025438;28;20017;-78
2022/09/21 11:51:48;;;;;;;0.00;0.00;;;26.30;70.00;;;;;;5029144;28;20025;-78
2022/09/21 11:54:22;;;;;;;0.00;0.00;;;25.70;69.60;;;;;;5028931;28;20021;-76
2022/09/21 11:56:54;;;;;;;0.00;0.00;;;25.20;70.00;;;;;;5028766;28;20024;-77
2022/09/21 11:59:41;;;;;;;0.00;0.00;;;25.00;70.50;;;;;;5028289;28;20597;-75
2022/09/21 12:03:04;;;;;;;0.00;0.00;;;25.10;70.90;;;;;;5028866;28;20736;-76
2022/09/21 12:05:41;;;;;;;0.00;0.00;;;24.90;70.10;;;;;;4986053;28;20502;-73
2022/09/21 12:08:41;;;;;;;0.00;0.00;;;24.70;70.20;;;;;;4969344;28;20034;-74
2022/09/21 12:11:32;;;;;;;0.00;0.00;;;24.20;69.80;;;;;;5022296;28;20048;-74
2022/09/21 12:14:21;;;;;;;0.00;0.00;;;23.70;69.90;;;;;;5024050;28;20026;-77
2022/09/21 12:17:02;;;;;;;0.00;0.00;;;23.40;70.20;;;;;;5024837;28;20025;-76
2022/09/21 12:20:02;;;;;;;0.00;0.00;;;23.40;70.90;;;;;;5023715;28;20065;-75
2022/09/21 12:22:32;;;;;;;0.00;0.00;;;23.60;71.20;;;;;;5027817;28;20033;-75
2022/09/21 12:25:05;;;;;;;0.00;0.00;;;23.90;70.80;;;;;;5021373;28;20041;-75
2022/09/21 12:27:37;;;;;;;0.00;0.00;;;24.10;70.80;;;;;;5026528;28;20030;-75
2022/09/21 12:30:20;;;;;;;0.00;0.00;;;24.10;70.20;;;;;;5027828;28;20017;-76
2022/09/21 12:32:55;;;;;;;0.00;0.00;;;23.90;70.40;;;;;;5027582;28;20049;-76
2022/09/21 12:35:49;;;;;;;0.00;0.00;;;24.10;70.90;;;;;;5027910;28;20100;-75
2022/09/21 12:38:38;;;;;;;0.00;0.00;;;24.60;70.80;;;;;;5026076;28;20050;-75
2022/09/21 12:41:20;;;;;;;0.00;0.00;;;24.70;70.20;;;;;;5026151;28;20377;-75
2022/09/21 12:43:48;;;;;;;0.00;0.00;;;25.10;70.70;;;;;;5023483;28;20053;-75
2022/09/21 12:46:22;;;;;;;0.00;0.00;;;25.60;70.80;;;;;;5027480;28;20018;-75
2022/09/21 12:48:48;;;;;;;0.00;0.00;;;25.60;70.20;;;;;;5027659;28;20021;-75
2022/09/21 12:51:27;;;;;;;0.00;0.00;;;25.40;69.70;;;;;;5026153;28;20095;-75
2022/09/21 12:53:57;;;;;;;0.10;0.00;;;25.10;69.80;;;;;;5025495;28;20021;-75
2022/09/21 12:56:58;;;;;;;0.00;0.00;;;24.80;69.70;;;;;;5027545;28;20032;-75
2022/09/21 12:59:48;;;;;;;0.00;0.00;;;24.50;69.50;;;;;;5019119;28;20125;-75
2022/09/21 13:02:32;;;;;;;0.00;0.00;;;24.00;69.60;;;;;;5027376;28;20020;-75
2022/09/21 13:05:37;;;;;;;0.00;0.00;;;23.80;70.10;;;;;;5028047;28;20055;-75
2022/09/21 13:08:03;;;;;;;0.00;0.00;;;23.70;70.20;;;;;;5022586;28;20017;-75
2022/09/21 13:10:56;;;;;;;;;;;23.60;70.10;;;;;;5032017;28;20032;-75
2022/09/21 13:14:11;;;;;;;0.00;0.00;;;23.50;70.00;;;;;;5030979;28;19945;-75
2022/09/21 13:16:38;;;;;;;0.00;0.00;;;23.30;69.90;;;;;;5009625;28;20107;-75
2022/09/21 13:19:04;;;;;;;0.00;0.00;;;23.20;70.00;;;;;;5028321;28;20021;-75
2022/09/21 13:21:32;;;;;;;0.00;0.00;;;23.10;70.10;;;;;;5028534;28;20026;-75
2022/09/21 13:24:06;;;;;;;0.00;0.00;;;23.00;69.90;;;;;;5030550;28;20040;-75
2022/09/21 13:26:55;;;;;;;0.00;0.00;;;22.90;69.90;;;;;;5027345;28;20079;-76